• Join FlightAware (Why Join?)
  • Login
  • US Flag 
03:44AM EDT


 

Airport Tracker/Info


-or-


 

Live Flight TrackerFlight Track Log ✈ C-FRMV ✈ 24-Apr-2012 ✈ CYWG - CYEK

Flight Track Log - Related Links

Times and Time Zones

All times are in EDT time to prevent confusion due to time zone crossing. See the C-FRMV flight status page for this flight to view local times or setup timezone preferences in your user account.

Time Position Orientation Groundspeed Altitude Reporting Facility
EDT Latitude Longitude Course Direction KTS MPH feet Rate Location/Type
05:44PM 49.9000 -97.2333 147° Southeast 70 81 800  Level Winnipeg Center
05:45PM 49.8667 -97.2000 136° Southeast 160 184 2,100 1,500 Climbing Winnipeg Center
05:46PM 49.8333 -97.1500 90° East 150 173 3,900 1,680 Climbing Winnipeg Center
05:47PM 49.8333 -97.1000 44° Northeast 160 184 5,500 1,500 Climbing Winnipeg Center
05:48PM 49.8667 -97.0500 33° Northeast 180 207 7,000 1,440 Climbing Winnipeg Center
05:49PM 49.9167 -97.0000 52° Northeast 190 219 8,400 1,380 Climbing Winnipeg Center
05:50PM 49.9500 -96.9333 33° Northeast 200 230 9,800 1,200 Climbing Winnipeg Center
05:51PM 50.0000 -96.8833 33° Northeast 200 230 10,800 1,200 Climbing Winnipeg Center
05:52PM 50.0500 -96.8333 360° North 190 219 12,200 1,260 Climbing Winnipeg Center
05:53PM 50.1000 -96.8333 33° Northeast 180 207 13,400 1,140 Climbing Winnipeg Center
05:54PM 50.1500 -96.7833 360° North 180 207 14,500 1,020 Climbing Winnipeg Center
05:55PM 50.1833 -96.7833 33° Northeast 180 207 15,500 960 Climbing Winnipeg Center
05:56PM 50.2333 -96.7333 23° Northeast 180 207 16,500 900 Climbing Winnipeg Center
05:57PM 50.2833 -96.7000 12° North 190 219 17,400 1,080 Climbing Winnipeg Center
05:58PM 50.3333 -96.6833 33° Northeast 180 207 18,700 1,020 Climbing Winnipeg Center
05:59PM 50.3667 -96.6500 360° North 170 196 19,500 720 Climbing Winnipeg Center
06:00PM 50.4167 -96.6500 23° Northeast 170 196 20,200 660 Climbing Winnipeg Center
06:01PM 50.4667 -96.6167 360° North 180 207 20,900 660 Climbing Winnipeg Center
06:02PM 50.5167 -96.6167 328° Northwest 170 196 21,600 600 Climbing Winnipeg Center
06:03PM 50.5500 -96.6500 360° North 160 184 22,200 600 Climbing Winnipeg Center
06:04PM 50.6000 -96.6500 337° Northwest 170 196 22,800 540 Climbing Winnipeg Center
06:05PM 50.6500 -96.6833 12° North 170 196 23,300 540 Climbing Winnipeg Center
06:06PM 50.7000 -96.6667 12° North 180 207 23,900 600 Climbing Winnipeg Center
06:07PM 50.7500 -96.6500 23° Northeast 180 207 24,600 480 Climbing Winnipeg Center
06:08PM 50.8000 -96.6167 360° North 180 207 24,900 180 Climbing Winnipeg Center
06:09PM 50.8500 -96.6167 12° North 190 219 25,000  Climbing Winnipeg Center
06:10PM 50.9000 -96.6000 17° North 210 242 25,000  Level Winnipeg Center
06:11PM 50.9667 -96.5667 23° Northeast 220 253 25,000  Level Winnipeg Center
06:12PM 51.0167 -96.5333 North 220 253 25,000  Level Winnipeg Center
06:13PM 51.0833 -96.5167 23° Northeast 220 253 25,000  Level Winnipeg Center
06:14PM 51.1333 -96.4833 25° Northeast 220 253 25,000  Level Winnipeg Center
06:15PM 51.2000 -96.4333 23° Northeast 220 253 25,000  Level Winnipeg Center
06:16PM 51.2500 -96.4000 North 230 265 25,000  Level Winnipeg Center
06:17PM 51.3167 -96.3833 40° Northeast 220 253 25,000  Level Winnipeg Center
06:18PM 51.3667 -96.3167 North 220 253 25,000  Level Winnipeg Center
06:19PM 51.4333 -96.3000 40° Northeast 230 265 25,000  Level Winnipeg Center
06:20PM 51.4833 -96.2333 North 230 265 25,000  Level Winnipeg Center
06:21PM 51.5500 -96.2167 32° Northeast 240 276 25,000  Level Winnipeg Center
06:22PM 51.6167 -96.1500 12° North 240 276 25,000  Level Winnipeg Center
06:23PM 51.6667 -96.1333 32° Northeast 240 276 25,000  Level Winnipeg Center
06:24PM 51.7333 -96.0667 North 240 276 25,000  Level Winnipeg Center
06:25PM 51.8000 -96.0500 22° Northeast 240 276 25,000  Level Winnipeg Center
06:26PM 51.8500 -96.0167 25° Northeast 240 276 25,000  Level Winnipeg Center
06:27PM 51.9167 -95.9667 17° North 230 265 25,000  Level Winnipeg Center
06:28PM 51.9833 -95.9333 32° Northeast 240 276 25,000  Level Winnipeg Center
06:29PM 52.0333 -95.8833 17° North 230 265 25,000  Level Winnipeg Center
06:30PM 52.1000 -95.8500 39° Northeast 230 265 25,000  Level Winnipeg Center
06:31PM 52.1500 -95.7833 North 240 276 25,000  Level Winnipeg Center
06:32PM 52.2167 -95.7667 17° North 230 265 25,000  Level Winnipeg Center
06:33PM 52.2833 -95.7333 31° Northeast 240 276 25,000  Level Winnipeg Center
06:34PM 52.3333 -95.6833 17° North 230 265 25,000  Level Winnipeg Center
06:35PM 52.4000 -95.6500 17° North 240 276 25,000  Level Winnipeg Center
06:36PM 52.4667 -95.6167 31° Northeast 240 276 25,000  Level Winnipeg Center
06:37PM 52.5167 -95.5667 17° North 240 276 25,000  Level Winnipeg Center
06:38PM 52.5833 -95.5333 31° Northeast 240 276 25,000  Level Winnipeg Center
06:39PM 52.6500 -95.4667 11° North 240 276 25,000  Level Winnipeg Center
06:40PM 52.7000 -95.4500 24° Northeast 240 276 25,000  Level Winnipeg Center
06:42PM 52.8333 -95.3500 11° North 240 276 25,000  Level Winnipeg Center
06:43PM 52.8833 -95.3333 28° Northeast 240 276 25,000  Level Winnipeg Center
06:46PM 53.0500 -95.1833 22° Northeast 280 322 25,000  Level Winnipeg Center
06:47PM 53.1000 -95.1500 17° North 240 276 25,000  Level Winnipeg Center
06:48PM 53.1667 -95.1167 22° Northeast 230 265 25,000  Level Winnipeg Center
06:49PM 53.2167 -95.0833 24° Northeast 230 265 25,000  Level Winnipeg Center
06:50PM 53.2833 -95.0333 17° North 230 265 25,000  Level Winnipeg Center
06:51PM 53.3500 -95.0000 31° Northeast 230 265 25,000  Level Winnipeg Center
06:52PM 53.4000 -94.9500 17° North 230 265 25,000  Level Winnipeg Center
06:53PM 53.4667 -94.9167 22° Northeast 230 265 25,000  Level Winnipeg Center
06:54PM 53.5167 -94.8833 38° Northeast 230 265 25,000  Level Winnipeg Center
06:55PM 53.5667 -94.8167 22° Northeast 230 265 25,000  Level Winnipeg Center
06:56PM 53.6167 -94.7833 24° Northeast 230 265 25,000  Level Winnipeg Center
06:57PM 53.6833 -94.7333 16° North 240 276 25,000  Level Winnipeg Center
06:58PM 53.7500 -94.7000 31° Northeast 240 276 25,000  Level Winnipeg Center
06:59PM 53.8167 -94.6333 21° North 240 276 25,000  Level Winnipeg Center
07:00PM 53.8667 -94.6000 16° North 240 276 25,000  Level Winnipeg Center
07:01PM 53.9333 -94.5667 322° Northwest 220 253 25,000  Level Winnipeg Center
07:02PM 53.9833 -94.6333 349° North 190 219 25,000  Level Winnipeg Center
07:03PM 54.0333 -94.6500 360° North 190 219 25,000  Level Winnipeg Center
07:04PM 54.0833 -94.6500 360° North 200 230 25,000  Level Winnipeg Center
07:05PM 54.1500 -94.6500 360° North 210 242 25,000  Level Winnipeg Center
07:06PM 54.2000 -94.6500 North 220 253 25,000  Level Winnipeg Center
07:07PM 54.2667 -94.6333 360° North 220 253 25,000  Level Winnipeg Center
07:08PM 54.3333 -94.6333 360° North 210 242 25,000  Level Winnipeg Center
07:09PM 54.4000 -94.6333 360° North 220 253 25,000  Level Winnipeg Center
07:10PM 54.4667 -94.6333 360° North 210 242 25,000  Level Winnipeg Center
07:11PM 54.5167 -94.6333 352° North 210 242 25,000  Level Winnipeg Center
07:12PM 54.5833 -94.6500 360° North 210 242 25,000  Level Winnipeg Center
07:13PM 54.6333 -94.6500 360° North 220 253 25,000  Level Winnipeg Center
07:14PM 54.7000 -94.6500 360° North 220 253 25,000  Level Winnipeg Center
07:15PM 54.7667 -94.6500 11° North 210 242 25,000  Level Winnipeg Center
07:16PM 54.8167 -94.6333 344° North 210 242 25,000  Level Winnipeg Center
07:17PM 54.8833 -94.6667 360° North 220 253 25,000  Level Winnipeg Center
07:18PM 54.9333 -94.6667 North 220 253 25,000  Level Winnipeg Center
07:19PM 55.0000 -94.6500 360° North 220 253 25,000  Level Winnipeg Center
07:20PM 55.0667 -94.6500 360° North 220 253 25,000  Level Winnipeg Center
07:21PM 55.1333 -94.6500 360° North 220 253 25,000  Level Winnipeg Center
07:22PM 55.1833 -94.6500 360° North 220 253 25,000  Level Winnipeg Center
07:23PM 55.2500 -94.6500 352° North 230 265 25,000  Level Winnipeg Center
07:24PM 55.3167 -94.6667 360° North 220 253 25,000  Level Winnipeg Center
07:25PM 55.3667 -94.6667 360° North 220 253 25,000  Level Winnipeg Center
07:26PM 55.4333 -94.6667 North 220 253 25,000  Level Winnipeg Center
07:27PM 55.5000 -94.6500 360° North 230 265 25,000  Level Winnipeg Center
07:28PM 55.5667 -94.6500 339° North 220 253 25,000  Level Winnipeg Center
07:29PM 55.6167 -94.6833 360° North 230 265 25,000  Level Winnipeg Center
07:30PM 55.6833 -94.6833 North 230 265 25,000  Level Winnipeg Center
07:31PM 55.7500 -94.6667 360° North 220 253 25,000  Level Winnipeg Center
07:32PM 55.8167 -94.6667 360° North 220 253 25,000  Level Winnipeg Center
07:33PM 55.8667 -94.6667 360° North 230 265 25,000  Level Winnipeg Center
07:34PM 55.9333 -94.6667 352° North 230 265 25,000  Level Winnipeg Center
07:35PM 56.0000 -94.6833 360° North 230 265 25,000  Level Winnipeg Center
07:36PM 56.0500 -94.6833 360° North 230 265 25,000  Level Winnipeg Center
07:37PM 56.1167 -94.6833 360° North 220 253 25,000  Level Winnipeg Center
07:38PM 56.1833 -94.6833 North 220 253 25,000  Level Winnipeg Center
07:39PM 56.2500 -94.6667 360° North 220 253 25,000  Level Winnipeg Center
07:40PM 56.3000 -94.6667 360° North 220 253 25,000  Level Winnipeg Center
07:41PM 56.3667 -94.6667 360° North 220 253 25,000  Level Winnipeg Center
07:42PM 56.4333 -94.6667 North 230 265 25,000  Level Winnipeg Center
07:43PM 56.5000 -94.6500 15° North 230 265 25,000  Level Winnipeg Center
07:44PM 56.5667 -94.6167 360° North 230 265 25,000  Level Winnipeg Center
07:45PM 56.6167 -94.6167 360° North 230 265 25,000  Level Winnipeg Center
07:46PM 56.6833 -94.6167 15° North 230 265 25,000  Level Winnipeg Center
07:47PM 56.7500 -94.5833 360° North 230 265 25,000  Level Winnipeg Center
07:48PM 56.8167 -94.5833 North 230 265 25,000  Level Winnipeg Center
07:49PM 56.8833 -94.5667 15° North 230 265 25,000  Level Winnipeg Center
07:50PM 56.9500 -94.5333 360° North 230 265 25,000  Level Winnipeg Center
07:51PM 57.0000 -94.5333 360° North 230 265 25,000  Level Winnipeg Center
07:52PM 57.0667 -94.5333 15° North 230 265 25,000  Level Winnipeg Center
07:53PM 57.1333 -94.5000 North 230 265 25,000  Level Winnipeg Center
07:54PM 57.2000 -94.4833 360° North 230 265 25,000  Level Winnipeg Center
07:55PM 57.2667 -94.4833 15° North 230 265 25,000  Level Winnipeg Center
07:56PM 57.3333 -94.4500 360° North 230 265 25,000  Level Winnipeg Center
07:57PM 57.4000 -94.4500 360° North 230 265 25,000  Level Winnipeg Center
07:58PM 57.4500 -94.4500 22° Northeast 230 265 25,000  Level Winnipeg Center
07:59PM 57.5167 -94.4000 360° North 230 265 25,000  Level Winnipeg Center
08:00PM 57.5833 -94.4000 360° North 240 276 25,000  Level Winnipeg Center
08:01PM 57.6500 -94.4000 15° North 230 265 25,000  Level Winnipeg Center
08:02PM 57.7167 -94.3667 360° North 240 276 25,000  Level Winnipeg Center
08:03PM 57.7667 -94.3667 North 230 265 25,000 -60 Level Winnipeg Center
08:04PM 57.8500 -94.3500 15° North 240 276 24,900 -300 Descending Winnipeg Center
08:05PM 57.9167 -94.3167 360° North 250 288 24,400 -480 Descending Winnipeg Center
08:06PM 57.9833 -94.3167 North 240 276 24,000 -240 Descending Winnipeg Center
08:07PM 58.0500 -94.3000 North 260 299 24,000  Level Winnipeg Center
08:15PM 58.5462 -94.2635 North  Level FlightAware Approximate
08:16PM 58.6077 -94.2589 North  Level FlightAware Approximate
08:17PM 58.6692 -94.2543 North  Level FlightAware Approximate
08:18PM 58.7307 -94.2497 North  Level FlightAware Approximate
08:19PM 58.7922 -94.2450 North  Level FlightAware Approximate
08:20PM 58.8537 -94.2404 North  Level FlightAware Approximate
08:21PM 58.9153 -94.2357 North  Level FlightAware Approximate
08:22PM 58.9768 -94.2310 North  Level FlightAware Approximate
08:23PM 59.0383 -94.2263 North  Level FlightAware Approximate
08:24PM 59.0998 -94.2216 North  Level FlightAware Approximate
08:25PM 59.1613 -94.2168 North  Level FlightAware Approximate
08:26PM 59.2228 -94.2121 North  Level FlightAware Approximate
08:27PM 59.2843 -94.2073 North  Level FlightAware Approximate
08:28PM 59.3458 -94.2025 North  Level FlightAware Approximate
08:29PM 59.4073 -94.1977 47° Northeast  Level FlightAware Approximate
08:30PM 59.4462 -94.1161 North  Level FlightAware Approximate
08:31PM 59.5077 -94.1142 North  Level FlightAware Approximate
08:32PM 59.5693 -94.1123 North  Level FlightAware Approximate
08:33PM 59.6308 -94.1104 North  Level FlightAware Approximate
08:34PM 59.6924 -94.1085 North  Level FlightAware Approximate
08:35PM 59.7539 -94.1067 North  Level FlightAware Approximate
08:36PM 59.8153 -94.0990 North  Level FlightAware Approximate
08:37PM 59.8768 -94.0973 North  Level FlightAware Approximate
08:38PM 59.9384 -94.0957 North  Level FlightAware Approximate
08:39PM 59.9999 -94.0941 North  Level FlightAware Approximate
08:40PM 60.0615 -94.0924 North  Level FlightAware Approximate
08:41PM 60.1230 -94.0908 North  Level FlightAware Approximate
08:42PM 60.1846 -94.0891 North  Level FlightAware Approximate
08:43PM 60.2461 -94.0875 North  Level FlightAware Approximate
08:44PM 60.3076 -94.0833 North  Level FlightAware Approximate
08:45PM 60.3692 -94.0819 North  Level FlightAware Approximate
08:46PM 60.4307 -94.0804 359° North  Level FlightAware Approximate
08:47PM 60.4922 -94.0833 North  Level FlightAware Approximate
08:48PM 60.5538 -94.0813 North  Level FlightAware Approximate
08:49PM 60.6153 -94.0793 359° North  Level FlightAware Approximate
08:50PM 60.6768 -94.0823 North  Level FlightAware Approximate
08:51PM 60.7384 -94.0794 North  Level FlightAware Approximate
08:52PM 60.7999 -94.0764 North  Level FlightAware Approximate
08:53PM 60.8611 -94.0667 360° North  Level FlightAware Approximate
08:54PM 60.9227 -94.0667 360° North  Level FlightAware Approximate
08:55PM 60.9843 -94.0667 360° North  Level FlightAware Approximate
08:56PM 61.0458 -94.0667 358° North  Level FlightAware Approximate
08:57PM 61.1073 -94.0720 174° South  Level Estimated
08:58PM 61.0833 -94.0667 349° North  Level FlightAware Approximate
08:59PM 61.1438 -94.0899 169° South  Level Estimated
09:00PM 61.0833 -94.0667 349° North  Level FlightAware Approximate
09:01PM 61.1438 -94.0899 169° South  Level Estimated
09:02PM 61.0833 -94.0667 349° North  Level FlightAware Approximate
09:03PM 61.1438 -94.0899 169° South  Level Estimated
09:04PM 61.0833 -94.0667 349° North  Level FlightAware Approximate
09:05PM 61.1438 -94.0899 349° North  Level Estimated